Airfield :
LOGIN :

Register | Disclaimer

   EN    FR    IT 

 










Legend :    VFR   Marginal VFR   IFR   Intensive IFR   Very Intensive IFR
Visi :
Ceiling :
>= 8 km
>= 3000ft
5 to 8 km
1000 to 3000 ft
1500m to 5 km
500 to 1000 ft
800 to 1500m
200 to 500 ft
< 800m
< 200 ft
Symbols :   Thunderstorms  Fog  Heavy snow  Heavy precipitations  Wind > 20 kt
SIGMETs :     Misc.  Thunderstorms  Icing  Turbulence  Mountain Waves  Volcanic Ashes







- Airport Elevation : 628 ft
- IATA code : CMR
- Download approach charts


LFGA - Colmar-Houssen

CURRENT METAR :
  • 241230Z AUTO 05008KT 010V120 CAVOK 21/08 Q1021

EXPIRED METARs :
  • 241200Z AUTO 02008KT 350V060 CAVOK 20/09 Q1021
  • 241130Z AUTO 06007KT 020V120 CAVOK 20/09 Q1021
  • 241100Z AUTO 03007KT 330V110 9999 FEW042 19/08 Q1021
  • 241030Z AUTO 03008KT 340V140 CAVOK 19/10 Q1022
  • 241000Z AUTO 04006KT 350V090 CAVOK 18/09 Q1022

TAF N/A
No reported NOTAMs for that airfield.



MET'MAP, your aeronautical weather chart ! - Copyright ORBIFLY December 2007 - Disclaimer

ORBIFLY MET'MAP TEAM :

Programming & Development : Alexandra Zaïnal
Concept & Development : Baudouin d'Aumeries
Co-Development & Prog : Marc-Olivier Méhu
Technical & hardware support : Manuel Goepfert

Contact : metmap@orbifly.com




SOURCES & CREDITS :

   NOAA